createdAt,value
2018-01-03T00:01:58.930Z,8.10
2018-01-03T00:04:27.174Z,8.00
2018-01-03T00:06:55.563Z,8.00
2018-01-03T00:09:24.889Z,8.10
2018-01-03T00:11:53.247Z,8.10
2018-01-03T00:14:21.624Z,8.10
2018-01-03T00:16:49.893Z,8.10
2018-01-03T00:19:18.134Z,8.20
2018-01-03T00:21:46.454Z,8.30
2018-01-03T00:24:15.345Z,8.30
2018-01-03T00:26:44.748Z,8.30
2018-01-03T00:29:13.020Z,8.40
2018-01-03T00:31:41.586Z,8.40
2018-01-03T00:34:09.888Z,8.40
2018-01-03T00:36:38.138Z,8.40
2018-01-03T00:39:06.418Z,8.40
2018-01-03T00:41:34.703Z,8.40
2018-01-03T00:44:03.101Z,8.30
2018-01-03T00:46:31.591Z,8.30
2018-01-03T00:48:59.836Z,8.20
2018-01-03T00:51:28.079Z,8.10
2018-01-03T00:53:56.350Z,8.20
2018-01-03T00:56:25.358Z,8.10
2018-01-03T00:58:53.598Z,8.10
2018-01-03T01:01:21.874Z,7.90
2018-01-03T01:03:50.119Z,7.90
2018-01-03T01:06:18.365Z,7.90
2018-01-03T01:08:46.777Z,8.00
2018-01-03T01:11:16.192Z,8.00
2018-01-03T01:13:44.434Z,8.00
2018-01-03T01:16:12.698Z,7.80
2018-01-03T01:18:40.942Z,7.80
2018-01-03T01:21:09.466Z,7.80
2018-01-03T01:23:37.730Z,7.80
2018-01-03T01:26:05.974Z,7.80
2018-01-03T01:28:34.219Z,7.80
2018-01-03T01:31:02.699Z,7.80
2018-01-03T01:33:33.142Z,7.80
2018-01-03T01:36:02.083Z,7.80
2018-01-03T01:38:30.352Z,7.80
2018-01-03T01:40:58.592Z,7.70
2018-01-03T01:43:26.986Z,7.80
2018-01-03T01:45:55.257Z,7.80
2018-01-03T01:48:24.026Z,7.80
2018-01-03T01:50:52.265Z,7.80
2018-01-03T01:53:20.714Z,7.80
2018-01-03T01:55:49.167Z,7.80
2018-01-03T01:58:17.410Z,7.90
2018-01-03T02:00:45.674Z,7.80
2018-01-03T02:03:13.919Z,7.80
2018-01-03T02:05:42.370Z,7.90
2018-01-03T02:08:10.637Z,8.00
2018-01-03T02:10:38.875Z,8.10
2018-01-03T02:13:08.802Z,8.10
2018-01-03T02:15:37.562Z,8.00
2018-01-03T02:18:05.806Z,8.00
2018-01-03T02:20:34.047Z,8.00
2018-01-03T02:23:02.326Z,8.00
2018-01-03T02:25:30.562Z,8.00
2018-01-03T02:27:58.811Z,8.00
2018-01-03T02:30:27.079Z,8.00
2018-01-03T02:32:55.355Z,8.00
2018-01-03T02:35:23.574Z,8.10
2018-01-03T02:37:54.454Z,8.20
2018-01-03T02:40:22.695Z,8.20
2018-01-03T02:42:50.943Z,8.20
2018-01-03T02:45:19.211Z,8.20
2018-01-03T02:47:47.455Z,8.20
2018-01-03T02:50:18.114Z,8.20
2018-01-03T02:52:46.381Z,8.30
2018-01-03T02:55:14.630Z,8.40
2018-01-03T02:57:42.871Z,8.40
2018-01-03T03:00:11.207Z,8.60
2018-01-03T03:02:40.618Z,8.60
2018-01-03T03:05:08.862Z,8.50
2018-01-03T03:07:37.142Z,8.40
2018-01-03T03:10:06.370Z,8.60
2018-01-03T03:12:34.605Z,8.60
2018-01-03T03:15:02.869Z,8.60
2018-01-03T03:17:31.886Z,8.50
2018-01-03T03:20:00.126Z,8.50
2018-01-03T03:22:28.658Z,8.40
2018-01-03T03:24:57.878Z,8.40
2018-01-03T03:27:26.118Z,8.40
2018-01-03T03:29:54.402Z,8.40
2018-01-03T03:32:22.646Z,8.50
2018-01-03T03:34:51.658Z,8.50
2018-01-03T03:37:20.146Z,8.50
2018-01-03T03:39:48.386Z,8.50
2018-01-03T03:42:17.066Z,8.50
2018-01-03T03:44:45.621Z,8.50
2018-01-03T03:47:13.858Z,8.50
2018-01-03T03:49:42.102Z,8.50
2018-01-03T03:52:11.369Z,8.60
2018-01-03T03:54:39.598Z,8.50
2018-01-03T03:57:08.038Z,8.50
2018-01-03T03:59:36.310Z,8.60
2018-01-03T04:02:04.551Z,8.60
2018-01-03T04:04:32.798Z,8.70
2018-01-03T04:07:01.312Z,8.70
2018-01-03T04:09:29.630Z,8.70
2018-01-03T04:11:57.875Z,8.70
2018-01-03T04:14:26.142Z,8.80
2018-01-03T04:16:54.702Z,8.80
2018-01-03T04:19:22.954Z,8.90
2018-01-03T04:21:51.226Z,8.90
2018-01-03T04:24:19.590Z,8.80
2018-01-03T04:26:47.829Z,8.90
2018-01-03T04:29:16.182Z,8.90
2018-01-03T04:31:46.578Z,8.90
2018-01-03T04:34:14.817Z,8.90
2018-01-03T04:36:43.090Z,8.90
2018-01-03T04:39:11.603Z,8.90
2018-01-03T04:41:39.826Z,8.90
2018-01-03T04:44:08.857Z,8.90
2018-01-03T04:46:37.097Z,9.00
2018-01-03T04:49:05.341Z,9.00
2018-01-03T04:51:33.660Z,9.00
2018-01-03T04:54:02.950Z,9.00
2018-01-03T04:56:32.882Z,9.10
2018-01-03T04:59:01.149Z,9.10
2018-01-03T05:01:29.389Z,9.10
2018-01-03T05:03:57.658Z,9.30
2018-01-03T05:06:25.913Z,9.40
2018-01-03T05:08:54.162Z,9.40
2018-01-03T05:11:22.410Z,9.50
2018-01-03T05:13:51.066Z,9.60
2018-01-03T05:16:19.554Z,9.50
2018-01-03T05:18:47.790Z,9.60
2018-01-03T05:21:16.070Z,9.70
2018-01-03T05:23:44.310Z,9.80
2018-01-03T05:26:12.762Z,9.90
2018-01-03T05:28:41.054Z,9.90
2018-01-03T05:31:09.290Z,10.10
2018-01-03T05:33:37.602Z,10.10
2018-01-03T05:36:06.050Z,10.30
2018-01-03T05:38:34.302Z,10.50
2018-01-03T05:41:02.542Z,10.40
2018-01-03T05:43:30.814Z,10.30
2018-01-03T05:45:59.331Z,10.20
2018-01-03T05:48:28.318Z,10.00
2018-01-03T05:50:57.363Z,10.10
2018-01-03T05:53:25.610Z,10.10
2018-01-03T05:55:54.058Z,10.10
2018-01-03T05:58:22.514Z,10.30
2018-01-03T06:00:50.762Z,10.20
2018-01-03T06:03:19.002Z,10.20
2018-01-03T06:05:47.472Z,10.20
2018-01-03T06:08:16.485Z,10.30
2018-01-03T06:10:46.661Z,10.30
2018-01-03T06:13:14.977Z,10.30
2018-01-03T06:15:43.182Z,10.30
2018-01-03T06:18:11.431Z,10.30
2018-01-03T06:20:40.654Z,10.30
2018-01-03T06:23:08.934Z,10.30
2018-01-03T06:25:37.174Z,10.30
2018-01-03T06:28:05.454Z,10.40
2018-01-03T06:30:34.619Z,10.40
2018-01-03T06:33:02.873Z,10.30
2018-01-03T06:35:31.134Z,10.40
2018-01-03T06:37:59.378Z,10.40
2018-01-03T06:40:27.622Z,10.50
2018-01-03T06:42:56.285Z,10.40
2018-01-03T06:45:26.733Z,10.50
2018-01-03T06:47:55.003Z,10.50
2018-01-03T06:50:23.265Z,10.60
2018-01-03T06:52:51.513Z,10.60
2018-01-03T06:55:19.762Z,10.80
2018-01-03T06:57:48.381Z,10.60
2018-01-03T07:00:16.632Z,10.60
2018-01-03T07:02:44.978Z,10.60
2018-01-03T07:05:13.553Z,10.60
2018-01-03T07:07:41.830Z,10.70
2018-01-03T07:10:10.223Z,10.70
2018-01-03T07:12:38.490Z,10.90
2018-01-03T07:15:06.742Z,10.90
2018-01-03T07:17:34.981Z,7.30
2018-01-03T07:20:03.935Z,6.10
2018-01-03T07:22:32.154Z,5.90
2018-01-03T07:25:01.166Z,6.30
2018-01-03T07:27:29.706Z,6.30
2018-01-03T07:29:58.178Z,6.40
2018-01-03T07:32:26.426Z,6.50
2018-01-03T07:34:54.690Z,6.70
2018-01-03T07:37:22.937Z,6.80
2018-01-03T07:39:51.192Z,7.00
2018-01-03T07:42:19.450Z,7.00
2018-01-03T07:44:47.686Z,7.10
2018-01-03T07:47:15.934Z,7.20
2018-01-03T07:49:44.279Z,7.20
2018-01-03T07:52:12.517Z,7.10
2018-01-03T07:54:41.970Z,7.20
2018-01-03T07:57:10.887Z,7.20
2018-01-03T07:59:40.779Z,7.10
2018-01-03T08:02:09.275Z,7.00
2018-01-03T08:04:37.710Z,7.00
2018-01-03T08:07:06.026Z,7.00
2018-01-03T08:09:35.353Z,7.10
2018-01-03T08:12:03.662Z,7.10
2018-01-03T08:14:31.898Z,7.20
2018-01-03T08:17:01.058Z,7.30
2018-01-03T08:19:29.366Z,7.30
2018-01-03T08:21:57.611Z,7.30
2018-01-03T08:24:25.854Z,7.30
2018-01-03T08:26:54.134Z,7.40
2018-01-03T08:29:22.374Z,7.50
2018-01-03T08:31:50.624Z,7.60
2018-01-03T08:34:18.974Z,7.70
2018-01-03T08:36:48.229Z,7.80
2018-01-03T08:39:16.449Z,7.80
2018-01-03T08:41:44.712Z,7.90
2018-01-03T08:44:12.962Z,7.90
2018-01-03T08:46:42.231Z,7.90
2018-01-03T08:49:10.503Z,8.00
2018-01-03T08:51:38.746Z,8.00
2018-01-03T08:54:07.112Z,8.00
2018-01-03T08:56:36.186Z,8.10
2018-01-03T08:59:04.427Z,8.00
2018-01-03T09:01:34.654Z,8.30
2018-01-03T09:04:03.166Z,8.40
2018-01-03T09:06:31.424Z,8.40
2018-01-03T09:08:59.806Z,8.30
2018-01-03T09:11:28.231Z,8.40
2018-01-03T09:13:57.230Z,8.40
2018-01-03T09:16:25.537Z,8.40
2018-01-03T09:18:53.994Z,8.40
2018-01-03T09:21:23.231Z,8.40
2018-01-03T09:23:51.609Z,8.40
2018-01-03T09:26:20.023Z,8.30
2018-01-03T09:28:49.043Z,8.50
2018-01-03T09:31:17.282Z,8.40
2018-01-03T09:33:45.566Z,8.40
2018-01-03T09:36:13.806Z,8.40
2018-01-03T09:38:42.062Z,8.40
2018-01-03T09:41:12.129Z,8.40
2018-01-03T09:43:40.352Z,8.30
2018-01-03T09:46:08.591Z,8.30
2018-01-03T09:48:37.626Z,8.40
2018-01-03T09:51:06.100Z,8.30
2018-01-03T09:53:34.369Z,8.40
2018-01-03T09:56:02.720Z,8.30
2018-01-03T09:58:31.727Z,8.40
2018-01-03T10:01:00.107Z,8.40
2018-01-03T10:03:29.217Z,8.50
2018-01-03T10:05:57.739Z,8.50
2018-01-03T10:08:26.134Z,8.60
2018-01-03T10:10:54.530Z,8.50
2018-01-03T10:13:23.555Z,8.50
2018-01-03T10:15:56.510Z,8.50
2018-01-03T10:18:25.521Z,8.60
2018-01-03T10:20:54.530Z,8.40
2018-01-03T10:23:22.846Z,8.40
2018-01-03T10:25:51.230Z,8.50
2018-01-03T10:28:19.478Z,8.50
2018-01-03T10:30:47.739Z,8.50
2018-01-03T10:33:16.057Z,8.50
2018-01-03T10:35:44.596Z,8.50
2018-01-03T10:38:12.846Z,8.50
2018-01-03T10:40:41.877Z,8.50
2018-01-03T10:43:10.186Z,8.50
2018-01-03T10:45:38.643Z,8.50
2018-01-03T10:48:07.866Z,8.50
2018-01-03T10:50:37.166Z,8.50
2018-01-03T10:53:05.607Z,8.40
2018-01-03T10:55:33.854Z,8.50
2018-01-03T10:58:02.098Z,8.60
2018-01-03T11:00:30.368Z,8.60
2018-01-03T11:02:58.612Z,8.60
2018-01-03T11:05:26.866Z,8.60
2018-01-03T11:08:03.083Z,8.60
2018-01-03T11:10:31.461Z,8.50
2018-01-03T11:13:00.875Z,8.50
2018-01-03T11:15:29.290Z,8.40
2018-01-03T11:17:58.313Z,8.20
2018-01-03T11:20:26.550Z,8.10
2018-01-03T11:22:55.958Z,8.20
2018-01-03T11:25:24.961Z,8.20
2018-01-03T11:27:53.970Z,8.10
2018-01-03T11:30:24.244Z,8.10
2018-01-03T11:32:53.438Z,7.30
2018-01-03T11:35:21.678Z,6.90
2018-01-03T11:37:51.158Z,6.70
2018-01-03T11:40:20.177Z,6.50
2018-01-03T11:42:48.422Z,6.50
2018-01-03T11:45:16.690Z,6.60
2018-01-03T11:47:44.931Z,6.40
2018-01-03T11:50:13.319Z,6.40
2018-01-03T11:52:42.726Z,6.30
2018-01-03T11:55:11.006Z,6.30
2018-01-03T11:57:39.240Z,6.20
2018-01-03T12:00:07.518Z,6.20
2018-01-03T12:02:35.834Z,6.30
2018-01-03T12:05:04.826Z,6.30
2018-01-03T12:07:33.096Z,6.40
2018-01-03T12:10:03.182Z,6.60
2018-01-03T12:12:31.422Z,6.60
2018-01-03T12:14:59.750Z,6.60
2018-01-03T12:17:29.178Z,6.70
2018-01-03T12:19:57.445Z,6.80
2018-01-03T12:22:25.694Z,6.90
2018-01-03T12:24:53.934Z,7.00
2018-01-03T12:27:22.404Z,7.20
2018-01-03T12:29:50.878Z,7.40
2018-01-03T12:32:19.108Z,7.50
2018-01-03T12:34:47.701Z,7.50
2018-01-03T12:37:16.019Z,7.40
2018-01-03T12:39:44.269Z,7.50
2018-01-03T12:42:12.666Z,7.60
2018-01-03T12:44:41.074Z,7.50
2018-01-03T12:47:09.421Z,7.60
2018-01-03T12:49:37.802Z,7.60
2018-01-03T12:52:06.222Z,7.60
2018-01-03T12:54:35.209Z,7.70
2018-01-03T12:57:04.222Z,7.80
2018-01-03T12:59:32.547Z,7.70
2018-01-03T13:02:00.805Z,7.80
2018-01-03T13:04:29.047Z,7.80
2018-01-03T13:06:58.187Z,8.30
2018-01-03T13:09:27.618Z,8.30
2018-01-03T13:11:57.834Z,8.90
2018-01-03T13:14:26.239Z,8.90
2018-01-03T13:16:56.620Z,9.40
2018-01-03T13:19:26.022Z,9.40
2018-01-03T13:21:54.803Z,9.20
2018-01-03T13:24:23.293Z,9.10
2018-01-03T13:26:51.518Z,9.00
2018-01-03T13:29:20.556Z,8.80
2018-01-03T13:31:48.790Z,8.80
2018-01-03T13:34:17.042Z,8.80
2018-01-03T13:36:45.330Z,8.70
2018-01-03T13:39:14.344Z,8.70
2018-01-03T13:41:43.586Z,8.70
2018-01-03T13:44:11.915Z,8.70
2018-01-03T13:46:40.167Z,8.80
2018-01-03T13:49:08.417Z,8.80
2018-01-03T13:51:36.670Z,8.80
2018-01-03T13:54:04.909Z,8.80
2018-01-03T13:56:33.929Z,8.90
2018-01-03T13:59:02.282Z,8.90
2018-01-03T14:01:32.478Z,8.90
2018-01-03T14:04:00.854Z,8.90
2018-01-03T14:06:30.846Z,8.90
2018-01-03T14:08:59.095Z,8.90
2018-01-03T14:11:31.522Z,8.90
2018-01-03T14:13:59.932Z,8.90
2018-01-03T14:16:28.934Z,8.90
2018-01-03T14:18:57.383Z,8.90
2018-01-03T14:21:25.638Z,9.00
2018-01-03T14:23:53.890Z,8.90
2018-01-03T14:26:22.139Z,8.90
2018-01-03T14:28:51.485Z,8.90
2018-01-03T14:31:19.722Z,8.90
2018-01-03T14:33:49.096Z,8.90
2018-01-03T14:36:17.499Z,9.00
2018-01-03T14:38:46.514Z,9.00
2018-01-03T14:41:14.838Z,9.00
2018-01-03T14:43:43.137Z,9.00
2018-01-03T14:46:11.595Z,9.00
2018-01-03T14:48:39.835Z,9.10
2018-01-03T14:51:09.430Z,9.10
2018-01-03T14:53:37.686Z,9.10
2018-01-03T14:56:07.115Z,9.10
2018-01-03T14:58:35.408Z,9.10
2018-01-03T15:01:03.706Z,9.10
2018-01-03T15:03:31.942Z,9.10
2018-01-03T15:06:00.232Z,9.10
2018-01-03T15:08:30.694Z,9.10
2018-01-03T15:10:59.277Z,9.10
2018-01-03T15:13:27.840Z,9.10
2018-01-03T15:15:58.291Z,9.10
2018-01-03T15:18:26.831Z,9.10
2018-01-03T15:20:55.081Z,9.10
2018-01-03T15:23:25.279Z,9.00
2018-01-03T15:25:53.654Z,9.00
2018-01-03T15:28:22.076Z,9.00
2018-01-03T15:30:50.419Z,9.00
2018-01-03T15:33:20.823Z,9.00
2018-01-03T15:35:49.275Z,9.00
2018-01-03T15:38:17.694Z,9.00
2018-01-03T15:40:46.074Z,8.90
2018-01-03T15:43:14.492Z,8.90
2018-01-03T15:45:43.756Z,8.90
2018-01-03T15:48:12.131Z,8.90
2018-01-03T15:50:40.546Z,8.90
2018-01-03T15:53:10.774Z,9.00
2018-01-03T15:55:39.785Z,9.00
2018-01-03T15:58:09.107Z,9.00
2018-01-03T16:00:37.411Z,9.00
2018-01-03T16:03:05.653Z,9.00
2018-01-03T16:05:33.940Z,9.00
2018-01-03T16:08:02.578Z,9.00
2018-01-03T16:10:33.726Z,9.10
2018-01-03T16:13:03.018Z,9.00
2018-01-03T16:15:33.214Z,9.00
2018-01-03T16:18:05.362Z,9.00
2018-01-03T16:20:33.623Z,9.00
2018-01-03T16:23:02.034Z,9.10
2018-01-03T16:25:30.443Z,9.00
2018-01-03T16:27:59.450Z,9.10
2018-01-03T16:30:28.454Z,9.00
2018-01-03T16:32:59.583Z,9.00
2018-01-03T16:35:28.595Z,8.90
2018-01-03T16:37:56.927Z,8.90
2018-01-03T16:40:26.306Z,8.80
2018-01-03T16:42:54.792Z,8.80
2018-01-03T16:45:23.290Z,8.70
2018-01-03T16:47:51.866Z,8.70
2018-01-03T16:50:21.470Z,8.70
2018-01-03T16:52:55.322Z,8.80
2018-01-03T16:55:24.791Z,8.80
2018-01-03T16:57:55.207Z,8.90
2018-01-03T17:00:25.320Z,8.90
2018-01-03T17:02:53.601Z,8.90
2018-01-03T17:05:21.888Z,8.90
2018-01-03T17:07:50.222Z,8.90
2018-01-03T17:10:19.063Z,8.90
2018-01-03T17:12:47.441Z,9.00
2018-01-03T17:15:19.335Z,8.90
2018-01-03T17:17:47.575Z,8.70
2018-01-03T17:20:15.970Z,8.60
2018-01-03T17:22:44.718Z,8.50
2018-01-03T17:25:15.171Z,8.50
2018-01-03T17:27:43.859Z,8.60
2018-01-03T17:30:14.117Z,8.60
2018-01-03T17:32:43.430Z,8.60
2018-01-03T17:35:11.766Z,8.60
2018-01-03T17:37:40.034Z,8.70
2018-01-03T17:40:08.286Z,8.70
2018-01-03T17:42:36.894Z,8.80
2018-01-03T17:45:05.380Z,8.80
2018-01-03T17:47:37.687Z,8.80
2018-01-03T17:50:06.974Z,8.80
2018-01-03T17:52:36.140Z,8.90
2018-01-03T17:55:04.634Z,8.90
2018-01-03T17:57:33.058Z,8.90
2018-01-03T18:00:01.386Z,8.90
2018-01-03T18:02:35.678Z,8.90
2018-01-03T18:05:04.038Z,8.90
2018-01-03T18:07:34.230Z,8.90
2018-01-03T18:10:04.625Z,8.90
2018-01-03T18:12:33.154Z,8.90
2018-01-03T18:15:07.386Z,8.80
2018-01-03T18:17:35.786Z,8.80
2018-01-03T18:20:05.010Z,8.80
2018-01-03T18:22:33.786Z,8.80
2018-01-03T18:25:02.994Z,8.80
2018-01-03T18:27:31.575Z,8.80
2018-01-03T18:30:01.022Z,8.80
2018-01-03T18:32:30.036Z,8.80
2018-01-03T18:34:58.365Z,8.80
2018-01-03T18:37:28.618Z,8.80
2018-01-03T18:39:59.726Z,8.90
2018-01-03T18:42:28.309Z,8.80
2018-01-03T18:44:56.622Z,8.90
2018-01-03T18:47:24.883Z,8.90
2018-01-03T18:49:55.092Z,8.90
2018-01-03T18:52:23.490Z,8.90
2018-01-03T18:54:53.691Z,8.90
2018-01-03T18:57:26.098Z,8.90
2018-01-03T18:59:56.286Z,8.90
2018-01-03T19:02:24.857Z,8.90
2018-01-03T19:04:53.174Z,8.90
2018-01-03T19:07:22.330Z,9.00
2018-01-03T19:09:51.646Z,9.00
2018-01-03T19:12:20.099Z,9.00
2018-01-03T19:14:48.390Z,8.90
2018-01-03T19:17:16.778Z,9.00
2018-01-03T19:19:45.203Z,8.90
2018-01-03T19:22:14.223Z,9.00
2018-01-03T19:24:42.530Z,9.00
2018-01-03T19:27:11.030Z,9.00
2018-01-03T19:29:40.206Z,9.00
2018-01-03T19:32:08.622Z,9.00
2018-01-03T19:34:36.994Z,9.00
2018-01-03T19:37:07.190Z,9.00
2018-01-03T19:39:35.575Z,8.90
2018-01-03T19:42:03.982Z,8.90
2018-01-03T19:44:33.250Z,8.90
2018-01-03T19:47:01.642Z,8.90
2018-01-03T19:49:30.095Z,8.90
2018-01-03T19:51:58.391Z,8.90
2018-01-03T19:54:26.626Z,8.90
2018-01-03T19:56:54.898Z,8.90
2018-01-03T19:59:23.206Z,8.90
2018-01-03T20:01:53.438Z,8.90
2018-01-03T20:04:22.230Z,8.90
2018-01-03T20:06:50.466Z,8.90
2018-01-03T20:09:18.942Z,8.90
2018-01-03T20:11:47.355Z,8.90
2018-01-03T20:14:15.945Z,9.00
2018-01-03T20:16:44.205Z,9.00
2018-01-03T20:19:12.462Z,9.00
2018-01-03T20:21:40.770Z,9.00
2018-01-03T20:24:09.158Z,9.00
2018-01-03T20:26:37.562Z,9.00
2018-01-03T20:29:06.838Z,9.00
2018-01-03T20:31:35.218Z,9.00
2018-01-03T20:34:04.014Z,9.10
2018-01-03T20:36:32.258Z,9.10
2018-01-03T20:39:00.658Z,9.00
2018-01-03T20:41:29.067Z,9.00
2018-01-03T20:43:58.080Z,9.10
2018-01-03T20:46:27.101Z,9.10
2018-01-03T20:48:55.358Z,9.00
2018-01-03T20:51:23.790Z,9.00
2018-01-03T20:53:55.399Z,9.00
2018-01-03T20:56:23.726Z,9.10
2018-01-03T20:58:52.046Z,9.10
2018-01-03T21:01:21.326Z,9.10
2018-01-03T21:03:50.366Z,9.10
2018-01-03T21:06:19.593Z,9.10
2018-01-03T21:08:47.985Z,9.10
2018-01-03T21:11:16.379Z,9.10
2018-01-03T21:13:45.406Z,9.00
2018-01-03T21:16:13.654Z,9.00
2018-01-03T21:18:42.284Z,9.10
2018-01-03T21:21:11.705Z,9.10
2018-01-03T21:23:39.958Z,9.10
2018-01-03T21:26:08.222Z,9.10
2018-01-03T21:28:36.475Z,9.10
2018-01-03T21:31:04.935Z,9.10
2018-01-03T21:33:33.326Z,9.10
2018-01-03T21:36:02.334Z,9.10
2018-01-03T21:38:31.622Z,9.10
2018-01-03T21:41:00.794Z,9.10
2018-01-03T21:43:31.118Z,9.10
2018-01-03T21:45:59.498Z,9.00
2018-01-03T21:48:27.903Z,9.00
2018-01-03T21:50:56.914Z,9.10
2018-01-03T21:53:25.186Z,9.10
2018-01-03T21:55:53.823Z,9.10
2018-01-03T21:58:23.239Z,9.00
2018-01-03T22:00:51.622Z,9.00
2018-01-03T22:03:19.972Z,9.00
2018-01-03T22:05:48.379Z,9.00
2018-01-03T22:08:16.678Z,9.00
2018-01-03T22:10:45.325Z,9.00
2018-01-03T22:13:13.550Z,9.00
2018-01-03T22:15:42.897Z,9.00
2018-01-03T22:18:12.138Z,9.00
2018-01-03T22:20:41.414Z,8.90
2018-01-03T22:23:09.795Z,8.90
2018-01-03T22:25:38.350Z,8.80
2018-01-03T22:28:06.602Z,8.90
2018-01-03T22:30:34.854Z,8.80
2018-01-03T22:33:03.386Z,8.80
2018-01-03T22:35:31.690Z,8.80
2018-01-03T22:37:59.943Z,8.80
2018-01-03T22:40:28.210Z,8.80
2018-01-03T22:42:56.459Z,8.80
2018-01-03T22:45:25.466Z,8.70
2018-01-03T22:47:53.930Z,8.80
2018-01-03T22:50:24.176Z,8.80
2018-01-03T22:52:52.422Z,8.70
2018-01-03T22:55:21.474Z,8.80
2018-01-03T22:57:49.874Z,8.80
2018-01-03T23:00:18.129Z,8.80
2018-01-03T23:02:50.351Z,8.80
2018-01-03T23:05:19.362Z,8.80
2018-01-03T23:07:47.615Z,8.80
2018-01-03T23:10:16.768Z,8.80
2018-01-03T23:12:45.011Z,8.80
2018-01-03T23:15:13.441Z,8.80
2018-01-03T23:17:41.715Z,8.80
2018-01-03T23:20:09.984Z,8.90
2018-01-03T23:22:38.270Z,8.80
2018-01-03T23:25:07.600Z,8.90
2018-01-03T23:27:36.627Z,8.80
2018-01-03T23:30:04.875Z,8.80
2018-01-03T23:32:33.412Z,8.80
2018-01-03T23:35:01.698Z,8.80
2018-01-03T23:37:29.943Z,8.90
2018-01-03T23:39:58.217Z,8.90
2018-01-03T23:42:26.462Z,8.90
2018-01-03T23:44:55.474Z,9.00
2018-01-03T23:47:23.758Z,9.00
2018-01-03T23:49:52.011Z,9.00
2018-01-03T23:52:20.251Z,9.00
2018-01-03T23:54:48.910Z,8.90
2018-01-03T23:57:17.155Z,9.00
2018-01-03T23:59:46.170Z,9.00
